createdAt,value
2023-05-25T00:02:06.381Z,92.47
2023-05-25T00:04:34.783Z,94.04
2023-05-25T00:07:02.751Z,92.94
2023-05-25T00:09:31.720Z,94.62
2023-05-25T00:11:59.850Z,95.15
2023-05-25T00:14:27.516Z,92.65
2023-05-25T00:16:55.346Z,93.57
2023-05-25T00:19:23.250Z,93.92
2023-05-25T00:21:51.235Z,91.40
2023-05-25T00:24:18.884Z,91.86
2023-05-25T00:26:48.060Z,91.38
2023-05-25T00:29:15.821Z,92.49
2023-05-25T00:31:43.466Z,93.72
2023-05-25T00:34:11.162Z,92.80
2023-05-25T00:36:38.791Z,93.08
2023-05-25T00:39:06.445Z,92.75
2023-05-25T00:41:34.885Z,92.18
2023-05-25T00:44:04.077Z,91.75
2023-05-25T00:46:34.327Z,93.12
2023-05-25T00:49:02.090Z,92.05
2023-05-25T00:51:32.972Z,92.74
2023-05-25T00:54:00.638Z,93.53
2023-05-25T00:56:31.822Z,93.30
2023-05-25T00:59:06.138Z,94.32
2023-05-25T01:01:39.977Z,93.90
2023-05-25T01:04:09.596Z,94.40
2023-05-25T01:06:38.045Z,95.72
2023-05-25T01:09:07.013Z,94.06
2023-05-25T01:11:37.442Z,94.94
2023-05-25T01:14:07.318Z,95.42
2023-05-25T01:16:35.087Z,94.68
2023-05-25T01:19:02.919Z,96.53
2023-05-25T01:21:37.983Z,96.85
2023-05-25T01:24:12.033Z,95.66
2023-05-25T01:26:43.837Z,97.04
2023-05-25T01:29:12.508Z,96.94
2023-05-25T01:31:40.510Z,96.25
2023-05-25T01:34:08.657Z,97.40
2023-05-25T01:36:37.727Z,96.69
2023-05-25T01:39:06.498Z,96.43
2023-05-25T01:41:34.180Z,96.25
2023-05-25T01:44:01.755Z,95.75
2023-05-25T01:46:35.488Z,95.28
2023-05-25T01:49:12.630Z,95.48
2023-05-25T01:51:49.198Z,94.90
2023-05-25T01:54:20.143Z,95.58
2023-05-25T01:56:49.054Z,95.30
2023-05-25T01:59:19.929Z,95.38
2023-05-25T02:01:49.210Z,96.16
2023-05-25T02:04:18.610Z,95.07
2023-05-25T02:06:50.652Z,95.75
2023-05-25T02:09:18.324Z,96.02
2023-05-25T02:11:46.067Z,97.31
2023-05-25T02:14:13.707Z,96.85
2023-05-25T02:16:41.320Z,97.02
2023-05-25T02:19:08.892Z,97.35
2023-05-25T02:21:37.675Z,96.95
2023-05-25T02:24:09.451Z,97.95
2023-05-25T02:26:37.131Z,97.49
2023-05-25T02:29:05.420Z,96.94
2023-05-25T02:31:33.187Z,97.22
2023-05-25T02:34:00.833Z,97.36
2023-05-25T02:36:28.476Z,97.21
2023-05-25T02:38:56.077Z,97.63
2023-05-25T02:41:26.370Z,97.68
2023-05-25T02:43:54.310Z,99.03
2023-05-25T02:46:22.914Z,99.93
2023-05-25T02:48:51.572Z,100.00
2023-05-25T02:51:19.313Z,100.00
2023-05-25T02:53:46.888Z,100.00
2023-05-25T02:56:14.492Z,100.00
2023-05-25T02:58:43.577Z,100.00
2023-05-25T03:01:18.229Z,100.00
2023-05-25T03:03:47.026Z,100.00
2023-05-25T03:06:16.048Z,100.00
2023-05-25T03:08:43.656Z,100.00
2023-05-25T03:11:11.281Z,100.00
2023-05-25T03:13:38.878Z,100.00
2023-05-25T03:16:08.464Z,100.00
2023-05-25T03:18:36.128Z,100.00
2023-05-25T03:21:03.739Z,100.00
2023-05-25T03:23:31.343Z,100.00
2023-05-25T03:25:59.072Z,100.00
2023-05-25T03:28:26.689Z,100.00
2023-05-25T03:30:54.270Z,100.00
2023-05-25T03:33:23.289Z,100.00
2023-05-25T03:35:50.881Z,100.00
2023-05-25T03:38:18.499Z,100.00
2023-05-25T03:40:46.137Z,100.00
2023-05-25T03:43:13.889Z,100.00
2023-05-25T03:45:41.627Z,100.00
2023-05-25T03:48:09.310Z,100.00
2023-05-25T03:50:40.057Z,100.00
2023-05-25T03:53:08.643Z,100.00
2023-05-25T03:55:36.302Z,100.00
2023-05-25T03:58:03.914Z,100.00
2023-05-25T04:00:31.532Z,100.00
2023-05-25T04:02:59.522Z,100.00
2023-05-25T04:05:27.584Z,100.00
2023-05-25T04:07:57.573Z,100.00
2023-05-25T04:10:25.313Z,100.00
2023-05-25T04:12:56.634Z,100.00
2023-05-25T04:15:25.092Z,100.00
2023-05-25T04:17:52.748Z,100.00
2023-05-25T04:20:20.586Z,100.00
2023-05-25T04:22:48.283Z,100.00
2023-05-25T04:25:19.869Z,100.00
2023-05-25T04:27:47.658Z,100.00
2023-05-25T04:30:15.715Z,100.00
2023-05-25T04:32:45.780Z,100.00
2023-05-25T04:35:14.555Z,100.00
2023-05-25T04:37:42.255Z,100.00
2023-05-25T04:40:11.661Z,100.00
2023-05-25T04:42:40.809Z,100.00
2023-05-25T04:45:10.206Z,100.00
2023-05-25T04:47:41.063Z,100.00
2023-05-25T04:50:10.207Z,100.00
2023-05-25T04:52:37.866Z,100.00
2023-05-25T04:55:05.988Z,100.00
2023-05-25T04:57:33.610Z,100.00
2023-05-25T05:00:02.569Z,100.00
2023-05-25T05:02:30.181Z,100.00
2023-05-25T05:04:57.779Z,100.00
2023-05-25T05:07:25.594Z,100.00
2023-05-25T05:09:53.217Z,100.00
2023-05-25T05:12:20.891Z,100.00
2023-05-25T05:14:48.536Z,100.00
2023-05-25T05:17:18.539Z,100.00
2023-05-25T05:19:46.136Z,100.00
2023-05-25T05:22:15.932Z,100.00
2023-05-25T05:24:43.664Z,100.00
2023-05-25T05:27:12.191Z,100.00
2023-05-25T05:29:39.830Z,100.00
2023-05-25T05:32:07.952Z,100.00
2023-05-25T05:34:37.578Z,100.00
2023-05-25T05:37:05.436Z,100.00
2023-05-25T05:39:33.064Z,100.00
2023-05-25T05:42:01.439Z,100.00
2023-05-25T05:44:29.614Z,100.00
2023-05-25T05:47:00.293Z,100.00
2023-05-25T05:49:28.657Z,100.00
2023-05-25T05:51:57.713Z,100.00
2023-05-25T05:54:25.363Z,100.00
2023-05-25T05:56:53.405Z,100.00
2023-05-25T05:59:22.378Z,100.00
2023-05-25T06:01:50.113Z,100.00
2023-05-25T06:04:19.589Z,100.00
2023-05-25T06:06:47.306Z,100.00
2023-05-25T06:09:16.443Z,100.00
2023-05-25T06:11:44.062Z,100.00
2023-05-25T06:14:11.806Z,100.00
2023-05-25T06:16:39.481Z,100.00
2023-05-25T06:19:07.180Z,100.00
2023-05-25T06:21:34.806Z,100.00
2023-05-25T06:24:02.520Z,100.00
2023-05-25T06:26:31.841Z,100.00
2023-05-25T06:28:59.487Z,100.00
2023-05-25T06:31:27.147Z,100.00
2023-05-25T06:33:54.851Z,100.00
2023-05-25T06:36:22.668Z,100.00
2023-05-25T06:38:50.331Z,100.00
2023-05-25T06:41:19.034Z,100.00
2023-05-25T06:43:48.196Z,100.00
2023-05-25T06:46:18.328Z,100.00
2023-05-25T06:48:46.507Z,100.00
2023-05-25T06:51:14.432Z,100.00
2023-05-25T06:53:42.076Z,100.00
2023-05-25T06:56:09.671Z,100.00
2023-05-25T06:58:37.338Z,100.00
2023-05-25T07:01:07.073Z,100.00
2023-05-25T07:03:34.764Z,100.00
2023-05-25T07:06:02.398Z,100.00
2023-05-25T07:08:30.061Z,100.00
2023-05-25T07:10:57.851Z,100.00
2023-05-25T07:13:25.696Z,100.00
2023-05-25T07:15:53.641Z,100.00
2023-05-25T07:18:22.647Z,100.00
2023-05-25T07:20:51.508Z,100.00
2023-05-25T07:23:19.153Z,100.00
2023-05-25T07:25:47.010Z,100.00
2023-05-25T07:28:14.863Z,100.00
2023-05-25T07:30:42.529Z,100.00
2023-05-25T07:33:10.205Z,100.00
2023-05-25T07:35:39.284Z,100.00
2023-05-25T07:38:06.983Z,100.00
2023-05-25T07:40:34.607Z,100.00
2023-05-25T07:43:02.382Z,100.00
2023-05-25T07:45:30.037Z,100.00
2023-05-25T07:47:57.719Z,100.00
2023-05-25T07:50:25.413Z,100.00
2023-05-25T07:52:54.369Z,100.00
2023-05-25T07:55:21.996Z,100.00
2023-05-25T07:57:49.649Z,100.00
2023-05-25T08:00:18.028Z,100.00
2023-05-25T08:02:45.933Z,100.00
2023-05-25T08:05:13.965Z,100.00
2023-05-25T08:07:42.920Z,100.00
2023-05-25T08:10:12.704Z,100.00
2023-05-25T08:12:48.767Z,100.00
2023-05-25T08:15:17.744Z,100.00
2023-05-25T08:17:45.722Z,100.00
2023-05-25T08:20:13.775Z,100.00
2023-05-25T08:22:41.431Z,100.00
2023-05-25T08:25:09.485Z,100.00
2023-05-25T08:27:38.415Z,100.00
2023-05-25T08:30:07.222Z,100.00
2023-05-25T08:32:34.976Z,100.00
2023-05-25T08:35:03.363Z,100.00
2023-05-25T08:37:32.627Z,100.00
2023-05-25T08:40:02.220Z,100.00
2023-05-25T08:42:29.926Z,100.00
2023-05-25T08:44:59.057Z,100.00
2023-05-25T08:47:33.058Z,100.00
2023-05-25T08:50:01.850Z,100.00
2023-05-25T08:52:32.367Z,100.00
2023-05-25T08:55:03.884Z,100.00
2023-05-25T08:57:36.049Z,99.24
2023-05-25T09:00:10.408Z,100.00
2023-05-25T09:02:41.009Z,98.14
2023-05-25T09:05:09.570Z,98.05
2023-05-25T09:07:37.412Z,96.83
2023-05-25T09:10:06.036Z,97.44
2023-05-25T09:12:33.674Z,97.72
2023-05-25T09:15:01.448Z,98.66
2023-05-25T09:17:30.570Z,95.60
2023-05-25T09:19:58.341Z,95.87
2023-05-25T09:22:26.124Z,95.70
2023-05-25T09:24:55.086Z,95.71
2023-05-25T09:27:23.933Z,98.28
2023-05-25T09:29:52.441Z,95.10
2023-05-25T09:32:20.494Z,96.94
2023-05-25T09:34:49.507Z,95.22
2023-05-25T09:37:19.205Z,94.87
2023-05-25T09:39:47.871Z,94.75
2023-05-25T09:42:15.704Z,94.94
2023-05-25T09:44:43.663Z,93.38
2023-05-25T09:47:13.301Z,94.95
2023-05-25T09:49:41.886Z,95.23
2023-05-25T09:52:10.871Z,93.43
2023-05-25T09:54:39.177Z,91.44
2023-05-25T09:57:07.271Z,92.08
2023-05-25T09:59:34.930Z,92.38
2023-05-25T10:02:02.723Z,91.57
2023-05-25T10:04:30.627Z,90.79
2023-05-25T10:06:58.575Z,91.45
2023-05-25T10:09:29.261Z,90.29
2023-05-25T10:11:58.341Z,91.15
2023-05-25T10:14:29.723Z,90.74
2023-05-25T10:16:59.507Z,91.09
2023-05-25T10:19:33.194Z,92.56
2023-05-25T10:22:08.092Z,91.88
2023-05-25T10:24:42.113Z,91.63
2023-05-25T10:27:25.657Z,89.46
2023-05-25T10:29:56.352Z,91.61
2023-05-25T10:32:24.322Z,91.34
2023-05-25T10:34:53.741Z,87.26
2023-05-25T10:37:21.958Z,88.93
2023-05-25T10:39:51.170Z,88.38
2023-05-25T10:42:19.792Z,86.75
2023-05-25T10:44:47.739Z,89.62
2023-05-25T10:47:16.501Z,91.06
2023-05-25T10:49:54.937Z,84.63
2023-05-25T10:52:23.215Z,88.26
2023-05-25T10:54:56.981Z,86.74
2023-05-25T10:57:26.094Z,86.23
2023-05-25T10:59:59.648Z,83.63
2023-05-25T11:02:29.239Z,82.57
2023-05-25T11:05:30.641Z,83.92
2023-05-25T11:07:59.026Z,80.21
2023-05-25T11:10:54.122Z,79.81
2023-05-25T11:13:24.392Z,81.17
2023-05-25T11:16:13.807Z,84.02
2023-05-25T11:18:43.695Z,80.45
2023-05-25T11:21:16.043Z,81.10
2023-05-25T11:23:57.741Z,76.85
2023-05-25T11:26:28.193Z,78.84
2023-05-25T11:28:58.846Z,79.18
2023-05-25T11:31:31.923Z,82.29
2023-05-25T11:34:02.656Z,76.80
2023-05-25T11:36:31.598Z,76.88
2023-05-25T11:39:04.929Z,78.02
2023-05-25T11:41:38.533Z,77.97
2023-05-25T11:44:07.010Z,75.18
2023-05-25T11:46:35.621Z,74.72
2023-05-25T11:49:03.300Z,73.88
2023-05-25T11:51:35.487Z,73.27
2023-05-25T11:54:04.388Z,74.89
2023-05-25T11:56:36.022Z,76.19
2023-05-25T11:59:09.160Z,75.65
2023-05-25T12:01:38.627Z,75.99
2023-05-25T12:04:10.135Z,72.43
2023-05-25T12:06:38.650Z,71.68
2023-05-25T12:09:12.868Z,73.66
2023-05-25T12:11:45.342Z,80.43
2023-05-25T12:14:15.287Z,76.01
2023-05-25T12:16:43.574Z,76.85
2023-05-25T12:19:12.430Z,74.66
2023-05-25T12:21:43.032Z,74.76
2023-05-25T12:24:12.818Z,72.38
2023-05-25T12:26:50.605Z,70.34
2023-05-25T12:29:19.937Z,70.57
2023-05-25T12:31:47.895Z,69.45
2023-05-25T12:34:17.347Z,68.33
2023-05-25T12:36:53.474Z,67.98
2023-05-25T12:39:34.828Z,67.93
2023-05-25T12:42:14.048Z,70.58
2023-05-25T12:44:43.532Z,67.81
2023-05-25T12:47:13.321Z,70.80
2023-05-25T12:49:42.555Z,67.83
2023-05-25T12:52:11.152Z,68.87
2023-05-25T12:54:44.127Z,69.16
2023-05-25T12:57:13.283Z,67.54
2023-05-25T12:59:43.222Z,66.10
2023-05-25T13:02:11.940Z,70.75
2023-05-25T13:04:40.792Z,71.41
2023-05-25T13:07:10.012Z,69.43
2023-05-25T13:09:38.273Z,67.20
2023-05-25T13:12:07.002Z,64.58
2023-05-25T13:14:34.661Z,66.56
2023-05-25T13:17:03.580Z,63.60
2023-05-25T13:19:31.359Z,65.22
2023-05-25T13:21:58.949Z,62.60
2023-05-25T13:24:26.556Z,65.24
2023-05-25T13:26:54.890Z,64.56
2023-05-25T13:29:23.872Z,64.61
2023-05-25T13:31:51.532Z,64.92
2023-05-25T13:34:20.500Z,63.62
2023-05-25T13:36:48.651Z,63.80
2023-05-25T13:39:16.291Z,63.64
2023-05-25T13:41:43.927Z,63.68
2023-05-25T13:44:14.556Z,61.99
2023-05-25T13:46:43.537Z,62.67
2023-05-25T13:49:11.843Z,64.74
2023-05-25T13:51:41.406Z,68.17
2023-05-25T13:54:09.062Z,64.42
2023-05-25T13:56:36.769Z,60.47
2023-05-25T13:59:04.402Z,61.14
2023-05-25T14:01:33.066Z,66.18
2023-05-25T14:04:00.993Z,64.57
2023-05-25T14:06:28.912Z,66.43
2023-05-25T14:08:58.199Z,63.29
2023-05-25T14:11:28.584Z,67.63
2023-05-25T14:13:56.555Z,63.80
2023-05-25T14:16:24.259Z,62.85
2023-05-25T14:18:52.064Z,63.28
2023-05-25T14:21:19.701Z,62.76
2023-05-25T14:23:47.366Z,63.22
2023-05-25T14:26:16.353Z,65.85
2023-05-25T14:28:44.014Z,63.68
2023-05-25T14:31:12.969Z,61.17
2023-05-25T14:33:42.868Z,63.35
2023-05-25T14:36:10.770Z,62.68
2023-05-25T14:38:38.447Z,65.88
2023-05-25T14:41:06.226Z,60.75
2023-05-25T14:43:35.597Z,62.51
2023-05-25T14:46:03.189Z,62.25
2023-05-25T14:48:30.825Z,61.04
2023-05-25T14:51:00.161Z,62.00
2023-05-25T14:53:27.755Z,60.14
2023-05-25T14:55:55.341Z,62.22
2023-05-25T14:58:23.045Z,63.76
2023-05-25T15:00:51.995Z,60.35
2023-05-25T15:03:19.711Z,64.68
2023-05-25T15:05:47.550Z,60.90
2023-05-25T15:08:15.350Z,64.80
2023-05-25T15:10:42.928Z,62.40
2023-05-25T15:13:13.085Z,60.98
2023-05-25T15:15:41.768Z,66.07
2023-05-25T15:18:10.830Z,60.63
2023-05-25T15:20:38.599Z,60.70
2023-05-25T15:23:06.320Z,61.45
2023-05-25T15:25:35.631Z,62.59
2023-05-25T15:28:04.324Z,64.39
2023-05-25T15:30:33.215Z,63.78
2023-05-25T15:33:01.000Z,62.99
2023-05-25T15:35:32.364Z,60.53
2023-05-25T15:38:01.075Z,62.45
2023-05-25T15:40:29.127Z,63.28
2023-05-25T15:42:56.739Z,64.67
2023-05-25T15:45:24.968Z,60.41
2023-05-25T15:47:52.589Z,62.31
2023-05-25T15:50:20.318Z,63.42
2023-05-25T15:52:49.284Z,64.24
2023-05-25T15:55:16.926Z,63.12
2023-05-25T15:57:44.547Z,64.96
2023-05-25T16:00:13.603Z,64.45
2023-05-25T16:02:41.244Z,64.79
2023-05-25T16:05:09.723Z,63.95
2023-05-25T16:07:37.303Z,64.61
2023-05-25T16:10:07.333Z,64.14
2023-05-25T16:12:49.033Z,62.69
2023-05-25T16:15:17.451Z,63.25
2023-05-25T16:17:45.941Z,62.40
2023-05-25T16:20:14.020Z,62.75
2023-05-25T16:22:42.227Z,63.21
2023-05-25T16:25:11.703Z,64.25
2023-05-25T16:27:39.452Z,62.95
2023-05-25T16:30:08.882Z,63.44
2023-05-25T16:32:37.859Z,63.27
2023-05-25T16:35:06.155Z,62.90
2023-05-25T16:37:33.921Z,62.67
2023-05-25T16:40:01.642Z,63.14
2023-05-25T16:42:31.820Z,63.71
2023-05-25T16:44:59.426Z,63.20
2023-05-25T16:47:27.091Z,64.27
2023-05-25T16:49:54.752Z,62.90
2023-05-25T16:52:22.404Z,63.62
2023-05-25T16:54:50.046Z,65.88
2023-05-25T16:57:17.677Z,66.01
2023-05-25T16:59:46.667Z,63.68
2023-05-25T17:02:14.395Z,64.17
2023-05-25T17:04:42.034Z,64.56
2023-05-25T17:07:09.852Z,67.20
2023-05-25T17:09:37.762Z,64.48
2023-05-25T17:12:06.548Z,65.03
2023-05-25T17:14:34.239Z,64.95
2023-05-25T17:17:03.336Z,65.36
2023-05-25T17:19:31.166Z,63.88
2023-05-25T17:21:58.940Z,64.38
2023-05-25T17:24:26.691Z,64.09
2023-05-25T17:26:54.566Z,66.04
2023-05-25T17:29:22.247Z,63.84
2023-05-25T17:31:50.233Z,64.65
2023-05-25T17:34:19.479Z,63.38
2023-05-25T17:36:48.125Z,64.38
2023-05-25T17:39:15.811Z,64.55
2023-05-25T17:41:45.420Z,65.18
2023-05-25T17:44:13.128Z,65.75
2023-05-25T17:46:40.853Z,66.51
2023-05-25T17:49:08.512Z,66.94
2023-05-25T17:51:42.645Z,67.91
2023-05-25T17:57:00.915Z,68.58
2023-05-25T17:59:28.631Z,67.22
2023-05-25T18:01:56.317Z,67.66
2023-05-25T18:04:23.986Z,67.31
2023-05-25T18:06:52.944Z,68.46
2023-05-25T18:09:20.769Z,70.93
2023-05-25T18:11:48.691Z,71.20
2023-05-25T18:14:16.315Z,71.89
2023-05-25T18:16:44.823Z,73.85
2023-05-25T18:19:14.722Z,73.91
2023-05-25T18:21:42.337Z,74.71
2023-05-25T18:24:11.900Z,75.37
2023-05-25T18:26:41.588Z,76.22
2023-05-25T18:29:09.686Z,76.61
2023-05-25T18:31:37.380Z,76.91
2023-05-25T18:34:06.743Z,76.18
2023-05-25T18:36:34.364Z,77.37
2023-05-25T18:39:01.966Z,78.38
2023-05-25T18:41:31.043Z,79.30
2023-05-25T18:43:58.697Z,79.90
2023-05-25T18:46:27.717Z,79.11
2023-05-25T18:48:55.709Z,80.58
2023-05-25T18:51:25.797Z,78.27
2023-05-25T18:53:53.565Z,79.97
2023-05-25T18:56:21.372Z,81.19
2023-05-25T18:58:52.102Z,85.73
2023-05-25T19:01:19.822Z,85.68
2023-05-25T19:03:47.586Z,85.43
2023-05-25T19:06:15.246Z,85.25
2023-05-25T19:08:42.883Z,84.35
2023-05-25T19:11:10.485Z,85.95
2023-05-25T19:13:38.084Z,85.09
2023-05-25T19:16:07.290Z,86.10
2023-05-25T19:18:34.909Z,86.04
2023-05-25T19:21:02.559Z,86.26
2023-05-25T19:23:30.176Z,85.79
2023-05-25T19:25:57.821Z,86.55
2023-05-25T19:28:25.667Z,87.01
2023-05-25T19:30:53.298Z,88.05
2023-05-25T19:33:22.243Z,87.63
2023-05-25T19:35:49.833Z,87.76
2023-05-25T19:38:17.479Z,87.91
2023-05-25T19:40:45.097Z,87.57
2023-05-25T19:43:12.696Z,88.84
2023-05-25T19:45:40.409Z,89.54
2023-05-25T19:48:08.104Z,89.16
2023-05-25T19:50:37.052Z,89.16
2023-05-25T19:53:04.702Z,89.82
2023-05-25T19:55:33.620Z,90.32
2023-05-25T19:58:01.285Z,90.95
2023-05-25T20:00:28.964Z,91.40
2023-05-25T20:02:56.742Z,91.81
2023-05-25T20:05:24.467Z,90.60
2023-05-25T20:07:53.666Z,90.95
2023-05-25T20:10:21.525Z,92.24
2023-05-25T20:12:49.606Z,93.03
2023-05-25T20:15:17.610Z,92.21
2023-05-25T20:17:45.587Z,92.81
2023-05-25T20:20:13.602Z,93.39
2023-05-25T20:22:41.539Z,93.53
2023-05-25T20:25:10.855Z,93.92
2023-05-25T20:27:38.640Z,94.22
2023-05-25T20:30:07.679Z,96.68
2023-05-25T20:32:35.471Z,97.97
2023-05-25T20:35:03.459Z,99.56
2023-05-25T20:37:31.277Z,100.00
2023-05-25T20:39:59.137Z,100.00
2023-05-25T20:42:28.345Z,100.00
2023-05-25T20:44:56.173Z,100.00
2023-05-25T20:47:23.968Z,100.00
2023-05-25T20:49:51.702Z,100.00
2023-05-25T20:52:21.111Z,100.00
2023-05-25T20:54:48.826Z,100.00
2023-05-25T20:57:16.748Z,100.00
2023-05-25T20:59:46.224Z,100.00
2023-05-25T21:02:13.939Z,100.00
2023-05-25T21:04:41.593Z,100.00
2023-05-25T21:07:09.313Z,100.00
2023-05-25T21:09:36.962Z,100.00
2023-05-25T21:12:04.918Z,100.00
2023-05-25T21:14:33.534Z,100.00
2023-05-25T21:17:02.570Z,100.00
2023-05-25T21:19:30.470Z,100.00
2023-05-25T21:21:58.139Z,100.00
2023-05-25T21:24:25.859Z,100.00
2023-05-25T21:26:53.497Z,100.00
2023-05-25T21:29:21.516Z,100.00
2023-05-25T21:31:49.292Z,100.00
2023-05-25T21:34:18.406Z,100.00
2023-05-25T21:36:46.057Z,100.00
2023-05-25T21:39:13.644Z,100.00
2023-05-25T21:41:41.622Z,100.00
2023-05-25T21:44:09.238Z,100.00
2023-05-25T21:46:37.989Z,100.00
2023-05-25T21:49:05.642Z,100.00
2023-05-25T21:51:34.647Z,100.00
2023-05-25T21:54:02.385Z,100.00
2023-05-25T21:56:30.049Z,100.00
2023-05-25T21:58:57.670Z,100.00
2023-05-25T22:01:25.484Z,100.00
2023-05-25T22:03:53.185Z,100.00
2023-05-25T22:06:20.831Z,100.00
2023-05-25T22:08:49.814Z,100.00
2023-05-25T22:11:17.443Z,100.00
2023-05-25T22:13:45.065Z,100.00
2023-05-25T22:16:12.711Z,100.00
2023-05-25T22:18:40.343Z,100.00
2023-05-25T22:21:07.973Z,100.00
2023-05-25T22:23:35.895Z,100.00
2023-05-25T22:26:05.616Z,100.00
2023-05-25T22:28:33.398Z,100.00
2023-05-25T22:31:01.123Z,100.00
2023-05-25T22:33:28.779Z,100.00
2023-05-25T22:35:56.461Z,100.00
2023-05-25T22:38:24.088Z,100.00
2023-05-25T22:40:51.714Z,100.00
2023-05-25T22:43:20.682Z,100.00
2023-05-25T22:45:48.309Z,100.00
2023-05-25T22:48:15.914Z,100.00
2023-05-25T22:50:43.533Z,100.00
2023-05-25T22:53:11.189Z,100.00
2023-05-25T22:55:38.878Z,100.00
2023-05-25T22:58:06.490Z,100.00
2023-05-25T23:00:35.464Z,100.00
2023-05-25T23:03:04.525Z,100.00
2023-05-25T23:05:32.328Z,100.00
2023-05-25T23:07:59.926Z,100.00
2023-05-25T23:10:27.539Z,100.00
2023-05-25T23:12:56.227Z,100.00
2023-05-25T23:15:23.884Z,100.00
2023-05-25T23:17:52.853Z,100.00
2023-05-25T23:20:20.639Z,100.00
2023-05-25T23:22:48.769Z,100.00
2023-05-25T23:25:16.540Z,100.00
2023-05-25T23:27:44.121Z,100.00
2023-05-25T23:30:12.636Z,100.00
2023-05-25T23:32:40.313Z,100.00
2023-05-25T23:35:10.378Z,100.00
2023-05-25T23:37:38.031Z,100.00
2023-05-25T23:40:06.731Z,100.00
2023-05-25T23:42:39.198Z,100.00
2023-05-25T23:45:09.798Z,100.00
2023-05-25T23:47:37.425Z,100.00
2023-05-25T23:50:05.426Z,100.00
2023-05-25T23:52:34.462Z,100.00
2023-05-25T23:55:02.070Z,100.00
2023-05-25T23:57:29.666Z,100.00
2023-05-25T23:59:57.335Z,100.00
